createdAt,value
2023-03-26T00:00:57.661Z,98667.13
2023-03-26T00:06:06.044Z,98678.75
2023-03-26T00:11:10.217Z,98671.63
2023-03-26T00:16:13.841Z,98669.69
2023-03-26T00:21:18.991Z,98683.44
2023-03-26T00:26:20.616Z,98693.34
2023-03-26T00:31:22.289Z,98702.75
2023-03-26T00:36:26.828Z,98708.97
2023-03-26T00:41:31.080Z,98702.44
2023-03-26T00:46:33.091Z,98693.69
2023-03-26T00:51:35.093Z,98698.13
2023-03-26T00:56:37.089Z,98666.81
2023-03-26T01:01:39.849Z,98677.59
2023-03-26T01:06:43.372Z,98674.16
2023-03-26T01:11:45.796Z,98672.78
2023-03-26T01:16:53.690Z,98667.19
2023-03-26T01:21:56.046Z,98662.25
2023-03-26T01:27:09.641Z,98672.22
2023-03-26T01:32:17.374Z,98673.56
2023-03-26T01:37:37.013Z,98669.38
2023-03-26T01:42:52.115Z,98684.81
2023-03-26T01:47:55.009Z,98689.81
2023-03-26T01:52:57.012Z,98678.47
2023-03-26T01:58:29.272Z,98672.84
2023-03-26T02:03:35.179Z,98661.66
2023-03-26T02:09:08.621Z,98668.28
2023-03-26T02:14:10.962Z,98674.28
2023-03-26T02:19:16.080Z,98674.41
2023-03-26T02:24:19.793Z,98667.47
2023-03-26T02:29:22.284Z,98682.97
2023-03-26T02:34:24.832Z,98675.16
2023-03-26T02:39:28.961Z,98687.59
2023-03-26T02:44:34.809Z,98689.53
2023-03-26T02:49:36.547Z,98673.06
2023-03-26T02:54:38.343Z,98663.28
2023-03-26T02:59:57.912Z,98673.34
2023-03-26T03:05:31.438Z,98664.50
2023-03-26T03:11:00.918Z,98666.84
2023-03-26T03:16:13.484Z,98676.34
2023-03-26T03:21:15.319Z,98667.13
2023-03-26T03:26:21.831Z,98667.34
2023-03-26T03:31:28.492Z,98667.13
2023-03-26T03:36:38.653Z,98675.41
2023-03-26T03:41:56.484Z,98687.44
2023-03-26T03:46:58.147Z,98677.25
2023-03-26T03:51:59.849Z,98672.91
2023-03-26T03:57:08.042Z,98682.84
2023-03-26T04:02:26.319Z,98678.97
2023-03-26T04:07:33.269Z,98674.44
2023-03-26T04:12:37.788Z,98674.13
2023-03-26T04:17:42.738Z,98674.13
2023-03-26T04:22:46.735Z,98670.44
2023-03-26T04:27:50.728Z,98657.81
2023-03-26T04:32:58.593Z,98665.19
2023-03-26T04:38:07.339Z,98667.56
2023-03-26T04:43:16.359Z,98664.91
2023-03-26T04:48:38.718Z,98667.16
2023-03-26T04:53:43.749Z,98650.72
2023-03-26T04:59:03.674Z,98651.00
2023-03-26T05:04:09.246Z,98649.25
2023-03-26T05:09:11.425Z,98649.72
2023-03-26T05:14:36.316Z,98649.63
2023-03-26T05:19:41.332Z,98636.97
2023-03-26T05:24:43.034Z,98644.53
2023-03-26T05:29:44.793Z,98649.88
2023-03-26T05:34:46.730Z,98666.16
2023-03-26T05:39:52.037Z,98664.09
2023-03-26T05:45:31.939Z,98662.94
2023-03-26T05:50:37.590Z,98657.88
2023-03-26T05:55:40.682Z,98671.63
2023-03-26T06:01:20.829Z,98671.34
2023-03-26T06:06:58.018Z,98671.25
2023-03-26T06:12:00.158Z,98670.03
2023-03-26T06:17:04.422Z,98678.16
2023-03-26T06:22:23.977Z,98677.50
2023-03-26T06:27:45.983Z,98670.53
2023-03-26T06:33:19.574Z,98672.78
2023-03-26T06:38:25.473Z,98671.72
2023-03-26T06:43:27.234Z,98662.44
2023-03-26T06:48:48.150Z,98659.94
2023-03-26T06:54:25.361Z,98661.66
2023-03-26T06:59:43.085Z,98667.19
2023-03-26T07:05:03.713Z,98670.09
2023-03-26T07:10:23.745Z,98672.94
2023-03-26T07:15:43.927Z,98662.19
2023-03-26T07:20:57.833Z,98667.09
2023-03-26T07:26:54.062Z,98678.34
2023-03-26T07:32:24.095Z,98670.00
2023-03-26T07:38:01.207Z,98671.00
2023-03-26T07:43:24.424Z,98669.59
2023-03-26T07:48:49.313Z,98676.75
2023-03-26T07:54:11.578Z,98667.94
2023-03-26T07:59:44.693Z,98662.00
2023-03-26T08:05:18.880Z,98667.25
2023-03-26T08:10:45.117Z,98660.03
2023-03-26T08:15:58.139Z,98656.75
2023-03-26T08:21:11.168Z,98655.41
2023-03-26T08:26:39.104Z,98647.34
2023-03-26T08:31:44.171Z,98647.34
2023-03-26T08:36:46.150Z,98639.44
2023-03-26T08:42:19.898Z,98640.88
2023-03-26T08:47:40.073Z,98633.94
2023-03-26T08:52:59.154Z,98643.78
2023-03-26T08:58:23.829Z,98638.81
2023-03-26T09:03:50.630Z,98631.31
2023-03-26T09:09:05.488Z,98619.13
2023-03-26T09:14:31.078Z,98625.13
2023-03-26T09:20:14.459Z,98615.38
2023-03-26T09:25:41.587Z,98617.72
2023-03-26T09:30:53.429Z,98608.72
2023-03-26T09:36:09.622Z,98603.19
2023-03-26T09:41:17.174Z,98582.91
2023-03-26T09:46:31.144Z,98580.59
2023-03-26T09:51:33.271Z,98573.53
2023-03-26T09:57:16.470Z,98587.34
2023-03-26T10:02:46.745Z,98581.66
2023-03-26T10:08:20.461Z,98574.84
2023-03-26T10:13:26.216Z,98560.19
2023-03-26T10:18:52.815Z,98550.06
2023-03-26T10:24:22.509Z,98538.13
2023-03-26T10:29:57.195Z,98537.81
2023-03-26T10:35:28.797Z,98521.88
2023-03-26T10:40:42.852Z,98509.91
2023-03-26T10:45:44.473Z,98499.94
2023-03-26T10:50:59.968Z,98486.44
2023-03-26T10:56:31.341Z,98471.16
2023-03-26T11:01:44.847Z,98469.78
2023-03-26T11:06:58.156Z,98470.06
2023-03-26T11:12:26.210Z,98459.66
2023-03-26T11:17:40.582Z,98452.22
2023-03-26T11:23:02.795Z,98455.34
2023-03-26T11:28:23.792Z,98448.47
2023-03-26T11:33:37.895Z,98437.22
2023-03-26T11:38:50.588Z,98438.00
2023-03-26T11:44:05.398Z,98421.66
2023-03-26T11:49:12.572Z,98416.16
2023-03-26T11:54:15.184Z,98411.84
2023-03-26T11:59:27.340Z,98412.94
2023-03-26T12:04:36.704Z,98427.63
2023-03-26T12:09:51.038Z,98413.44
2023-03-26T12:14:53.125Z,98400.75
2023-03-26T12:19:54.706Z,98398.75
2023-03-26T12:25:19.625Z,98395.75
2023-03-26T12:30:22.841Z,98387.06
2023-03-26T12:35:27.742Z,98387.72
2023-03-26T12:40:34.320Z,98394.34
2023-03-26T12:45:42.788Z,98395.63
2023-03-26T12:51:08.195Z,98389.81
2023-03-26T12:56:27.291Z,98380.81
2023-03-26T13:01:51.897Z,98381.16
2023-03-26T13:07:01.716Z,98376.16
2023-03-26T13:12:32.000Z,98373.81
2023-03-26T13:18:15.593Z,98364.06
2023-03-26T13:23:26.778Z,98366.25
2023-03-26T13:28:43.765Z,98368.66
2023-03-26T13:33:57.616Z,98366.03
2023-03-26T13:39:20.399Z,98377.56
2023-03-26T13:44:40.590Z,98360.94
2023-03-26T13:49:51.908Z,98354.53
2023-03-26T13:55:20.380Z,98360.13
2023-03-26T14:01:04.082Z,98361.75
2023-03-26T14:06:12.945Z,98358.06
2023-03-26T14:11:21.249Z,98375.63
2023-03-26T14:16:29.735Z,98374.31
2023-03-26T14:21:52.381Z,98373.34
2023-03-26T14:27:03.373Z,98379.13
2023-03-26T14:32:33.431Z,98375.03
2023-03-26T14:38:00.732Z,98370.06
2023-03-26T14:43:29.883Z,98365.22
2023-03-26T14:48:37.302Z,98370.06
2023-03-26T14:53:44.242Z,98362.84
2023-03-26T14:59:07.867Z,98365.28
2023-03-26T15:04:43.730Z,98358.78
2023-03-26T15:10:14.674Z,98347.91
2023-03-26T15:15:38.165Z,98345.97
2023-03-26T15:20:48.540Z,98354.47
2023-03-26T15:26:04.390Z,98354.47
2023-03-26T15:31:16.727Z,98356.84
2023-03-26T15:36:56.454Z,98361.94
2023-03-26T15:42:21.985Z,98354.47
2023-03-26T15:47:51.425Z,98357.25
2023-03-26T15:53:06.727Z,98362.84
2023-03-26T15:58:18.303Z,98347.72
2023-03-26T16:03:34.313Z,98345.34
2023-03-26T16:09:09.494Z,98348.25
2023-03-26T16:14:24.605Z,98347.81
2023-03-26T16:19:41.134Z,98349.00
2023-03-26T16:24:47.732Z,98350.47
2023-03-26T16:30:07.037Z,98345.97
2023-03-26T16:35:28.599Z,98343.97
2023-03-26T16:40:49.093Z,98345.63
2023-03-26T16:46:02.501Z,98349.09
2023-03-26T16:51:22.857Z,98344.91
2023-03-26T16:56:44.771Z,98350.47
2023-03-26T17:01:50.934Z,98346.16
2023-03-26T17:07:14.300Z,98345.28
2023-03-26T17:12:40.794Z,98349.44
2023-03-26T17:18:03.930Z,98345.53
2023-03-26T17:23:31.229Z,98351.72
2023-03-26T17:28:53.282Z,98356.75
2023-03-26T17:33:55.321Z,98359.03
2023-03-26T17:39:01.037Z,98359.13
2023-03-26T17:44:48.378Z,98362.41
2023-03-26T17:49:54.803Z,98365.72
2023-03-26T17:54:57.183Z,98376.56
2023-03-26T18:00:00.954Z,98372.56
2023-03-26T18:05:06.175Z,98370.88
2023-03-26T18:10:33.174Z,98378.34
2023-03-26T18:15:48.918Z,98379.44
2023-03-26T18:20:52.199Z,98384.50
2023-03-26T18:26:23.142Z,98383.78
2023-03-26T18:31:26.884Z,98375.13
2023-03-26T18:36:31.134Z,98373.91
2023-03-26T18:41:41.559Z,98376.53
2023-03-26T18:46:44.089Z,98374.09
2023-03-26T18:51:56.071Z,98364.31
2023-03-26T18:57:15.463Z,98365.34
2023-03-26T19:02:19.673Z,98362.59
2023-03-26T19:07:25.291Z,98357.06
2023-03-26T19:12:33.189Z,98363.16
2023-03-26T19:17:45.095Z,98349.78
2023-03-26T19:22:48.041Z,98353.75
2023-03-26T19:27:51.776Z,98335.00
2023-03-26T19:32:54.061Z,98327.00
2023-03-26T19:37:55.815Z,98331.63
2023-03-26T19:42:58.149Z,98326.66
2023-03-26T19:48:12.242Z,98323.81
2023-03-26T19:53:24.176Z,98319.06
2023-03-26T19:58:26.789Z,98312.41
2023-03-26T20:03:40.331Z,98306.03
2023-03-26T20:08:42.855Z,98309.00
2023-03-26T20:13:44.511Z,98295.41
2023-03-26T20:18:46.138Z,98284.75
2023-03-26T20:23:48.003Z,98281.25
2023-03-26T20:28:53.482Z,98278.63
2023-03-26T20:33:56.481Z,98271.03
2023-03-26T20:38:58.272Z,98282.66
2023-03-26T20:43:59.947Z,98278.88
2023-03-26T20:49:01.550Z,98266.00
2023-03-26T20:54:03.157Z,98267.75
2023-03-26T20:59:11.070Z,98266.47
2023-03-26T21:04:14.330Z,98269.53
2023-03-26T21:09:23.591Z,98268.19
2023-03-26T21:14:39.083Z,98263.63
2023-03-26T21:19:41.404Z,98262.66
2023-03-26T21:24:45.750Z,98265.56
2023-03-26T21:29:47.721Z,98271.13
2023-03-26T21:34:58.589Z,98290.38
2023-03-26T21:40:11.489Z,98300.22
2023-03-26T21:45:13.580Z,98308.31
2023-03-26T21:50:18.592Z,98308.25
2023-03-26T21:55:23.440Z,98322.81
2023-03-26T22:00:42.798Z,98318.38
2023-03-26T22:06:02.205Z,98317.97
2023-03-26T22:11:03.854Z,98312.50
2023-03-26T22:16:07.647Z,98312.78
2023-03-26T22:21:09.720Z,98314.41
2023-03-26T22:26:11.546Z,98320.16
2023-03-26T22:31:13.310Z,98317.84
2023-03-26T22:36:22.497Z,98316.25
2023-03-26T22:41:25.831Z,98322.88
2023-03-26T22:46:27.775Z,98318.66
2023-03-26T22:51:30.261Z,98315.81
2023-03-26T22:56:32.034Z,98314.63
2023-03-26T23:01:34.459Z,98319.16
2023-03-26T23:06:36.094Z,98324.09
2023-03-26T23:11:37.726Z,98325.84
2023-03-26T23:16:39.439Z,98327.50
2023-03-26T23:21:41.399Z,98321.97
2023-03-26T23:26:50.573Z,98331.19
2023-03-26T23:31:54.623Z,98349.88
2023-03-26T23:36:58.049Z,98346.94
2023-03-26T23:41:59.717Z,98359.22
2023-03-26T23:47:01.341Z,98350.72
2023-03-26T23:52:04.947Z,98355.88
2023-03-26T23:57:06.576Z,98348.59
